createdAt,value
2019-02-19T00:04:32.154Z,16.57
2019-02-19T00:09:28.285Z,15.50
2019-02-19T00:14:26.754Z,16.33
2019-02-19T00:19:22.763Z,16.10
2019-02-19T00:24:18.835Z,15.27
2019-02-19T00:29:14.991Z,14.73
2019-02-19T00:34:11.031Z,14.03
2019-02-19T00:39:07.264Z,14.20
2019-02-19T00:44:03.262Z,14.07
2019-02-19T00:48:59.583Z,13.80
2019-02-19T00:53:55.901Z,14.10
2019-02-19T00:58:52.553Z,13.17
2019-02-19T01:03:48.599Z,13.13
2019-02-19T01:08:47.579Z,13.37
2019-02-19T01:13:52.763Z,13.20
2019-02-19T01:18:49.001Z,13.67
2019-02-19T01:23:44.890Z,12.60
2019-02-19T01:28:41.174Z,14.17
2019-02-19T01:33:37.221Z,13.53
2019-02-19T01:38:33.856Z,13.20
2019-02-19T01:43:30.281Z,14.10
2019-02-19T01:48:26.427Z,13.13
2019-02-19T01:53:22.382Z,13.30
2019-02-19T01:58:18.275Z,13.33
2019-02-19T02:03:15.658Z,13.07
2019-02-19T02:08:11.805Z,12.60
2019-02-19T02:13:08.193Z,12.27
2019-02-19T02:18:04.473Z,12.00
2019-02-19T02:23:00.265Z,12.70
2019-02-19T02:27:56.411Z,12.47
2019-02-19T02:32:52.486Z,13.67
2019-02-19T02:37:48.663Z,13.07
2019-02-19T02:42:44.659Z,12.93
2019-02-19T02:47:40.901Z,12.20
2019-02-19T02:52:37.117Z,11.43
2019-02-19T02:57:33.068Z,13.07
2019-02-19T03:02:29.494Z,12.80
2019-02-19T03:07:33.413Z,11.73
2019-02-19T03:12:32.763Z,11.70
2019-02-19T03:17:28.501Z,11.37
2019-02-19T03:22:24.348Z,11.67
2019-02-19T03:27:20.208Z,11.97
2019-02-19T03:32:15.956Z,11.07
2019-02-19T03:37:11.729Z,12.03
2019-02-19T03:42:07.487Z,10.57
2019-02-19T03:47:03.384Z,11.13
2019-02-19T03:51:59.201Z,10.90
2019-02-19T03:56:54.958Z,11.07
2019-02-19T04:01:50.941Z,10.50
2019-02-19T04:06:46.694Z,10.23
2019-02-19T04:11:42.415Z,10.50
2019-02-19T04:16:38.483Z,11.03
2019-02-19T04:21:35.244Z,10.90
2019-02-19T04:26:31.434Z,11.30
2019-02-19T04:31:27.107Z,9.53
2019-02-19T04:36:22.843Z,10.20
2019-02-19T04:41:18.583Z,10.00
2019-02-19T04:46:14.635Z,9.80
2019-02-19T04:51:11.393Z,9.10
2019-02-19T04:56:07.140Z,9.50
2019-02-19T05:01:02.962Z,9.00
2019-02-19T05:05:58.718Z,9.20
2019-02-19T05:10:54.796Z,9.73
2019-02-19T05:15:53.950Z,8.60
2019-02-19T05:20:49.743Z,8.87
2019-02-19T05:25:47.004Z,9.63
2019-02-19T05:30:46.252Z,10.30
2019-02-19T05:35:42.048Z,11.93
2019-02-19T05:40:37.834Z,10.63
2019-02-19T05:45:33.591Z,9.53
2019-02-19T05:50:29.313Z,10.73
2019-02-19T05:55:28.055Z,10.73
2019-02-19T06:00:23.747Z,11.07
2019-02-19T06:05:19.486Z,9.30
2019-02-19T06:10:15.206Z,11.37
2019-02-19T06:15:12.675Z,10.73
2019-02-19T06:20:09.122Z,11.07
2019-02-19T06:25:05.174Z,18.80
2019-02-19T06:30:01.150Z,13.40
2019-02-19T06:34:56.925Z,10.03
2019-02-19T06:40:11.626Z,12.47
2019-02-19T06:45:09.596Z,14.60
2019-02-19T06:50:15.096Z,14.00
2019-02-19T06:55:28.831Z,12.30
2019-02-19T07:00:25.805Z,12.63
2019-02-19T07:05:35.554Z,12.57
2019-02-19T07:10:33.596Z,12.47
2019-02-19T07:15:29.371Z,12.10
2019-02-19T07:20:25.204Z,11.73
2019-02-19T07:25:21.256Z,35.33
2019-02-19T07:30:17.015Z,21.30
2019-02-19T07:35:12.922Z,18.97
2019-02-19T07:40:08.958Z,27.23
2019-02-19T07:45:04.905Z,25.63
2019-02-19T07:50:00.833Z,17.93
2019-02-19T07:54:57.562Z,19.73
2019-02-19T07:59:56.937Z,21.77
2019-02-19T08:04:55.922Z,17.77
2019-02-19T08:09:51.761Z,17.50
2019-02-19T08:14:47.499Z,16.10
2019-02-19T08:19:43.360Z,12.80
2019-02-19T08:24:39.134Z,12.20
2019-02-19T08:29:35.129Z,13.47
2019-02-19T08:34:30.881Z,12.87
2019-02-19T08:39:26.599Z,13.47
2019-02-19T08:44:22.354Z,11.27
2019-02-19T08:49:18.415Z,9.13
2019-02-19T08:54:14.199Z,11.23
2019-02-19T08:59:10.051Z,9.53
2019-02-19T09:04:08.488Z,9.33
2019-02-19T09:09:05.876Z,11.73
2019-02-19T09:14:01.588Z,8.70
2019-02-19T09:18:57.408Z,8.80
2019-02-19T09:23:53.180Z,7.97
2019-02-19T09:28:50.027Z,8.43
2019-02-19T09:33:45.835Z,8.47
2019-02-19T09:38:41.795Z,7.50
2019-02-19T09:43:37.689Z,7.30
2019-02-19T09:48:33.495Z,7.50
2019-02-19T09:53:29.291Z,7.00
2019-02-19T09:58:25.177Z,6.37
2019-02-19T10:03:21.285Z,5.43
2019-02-19T10:08:18.140Z,5.33
2019-02-19T10:13:13.965Z,5.63
2019-02-19T10:18:10.556Z,4.90
2019-02-19T10:23:09.222Z,4.57
2019-02-19T10:28:05.308Z,4.50
2019-02-19T10:33:01.138Z,4.40
2019-02-19T10:37:57.040Z,5.10
2019-02-19T10:42:52.918Z,4.63
2019-02-19T10:47:48.824Z,4.20
2019-02-19T10:52:45.979Z,4.87
2019-02-19T10:57:42.420Z,5.00
2019-02-19T11:02:38.212Z,5.00
2019-02-19T11:07:35.551Z,5.27
2019-02-19T11:12:31.334Z,5.10
2019-02-19T11:17:27.075Z,5.37
2019-02-19T11:22:22.970Z,4.73
2019-02-19T11:27:18.850Z,5.47
2019-02-19T11:32:14.680Z,5.03
2019-02-19T11:37:10.555Z,4.80
2019-02-19T11:42:06.293Z,5.00
2019-02-19T11:47:02.075Z,5.30
2019-02-19T11:52:00.518Z,4.67
2019-02-19T11:56:56.313Z,5.60
2019-02-19T12:01:52.416Z,6.10
2019-02-19T12:06:51.291Z,5.30
2019-02-19T12:11:47.100Z,6.30
2019-02-19T12:16:42.853Z,5.53
2019-02-19T12:21:39.717Z,6.33
2019-02-19T12:26:36.016Z,6.43
2019-02-19T12:31:31.874Z,6.10
2019-02-19T12:36:27.832Z,6.57
2019-02-19T12:41:23.552Z,6.37
2019-02-19T12:46:26.139Z,6.83
2019-02-19T12:51:26.422Z,7.03
2019-02-19T12:56:20.256Z,7.03
2019-02-19T13:01:16.142Z,7.00
2019-02-19T13:06:11.990Z,6.53
2019-02-19T13:11:07.768Z,6.70
2019-02-19T13:16:03.647Z,6.13
2019-02-19T13:20:59.463Z,6.50
2019-02-19T13:25:55.390Z,6.10
2019-02-19T13:30:51.151Z,6.63
2019-02-19T13:35:46.896Z,5.30
2019-02-19T13:40:42.621Z,6.03
2019-02-19T13:45:38.549Z,4.67
2019-02-19T13:50:34.494Z,5.33
2019-02-19T13:55:33.597Z,5.20
2019-02-19T14:00:31.021Z,5.07
2019-02-19T14:05:26.816Z,5.43
2019-02-19T14:10:22.539Z,5.90
2019-02-19T14:15:46.198Z,5.30
2019-02-19T14:21:09.662Z,5.70
2019-02-19T14:26:23.891Z,4.90
2019-02-19T14:31:50.671Z,5.40
2019-02-19T14:37:14.250Z,5.80
2019-02-19T14:42:28.974Z,5.13
2019-02-19T14:47:43.071Z,5.53
2019-02-19T14:52:54.478Z,5.60
2019-02-19T14:58:18.414Z,5.20
2019-02-19T15:03:42.638Z,4.70
2019-02-19T15:08:57.468Z,5.03
2019-02-19T15:14:17.880Z,4.77
2019-02-19T15:19:41.867Z,4.97
2019-02-19T15:25:05.861Z,8.63
2019-02-19T15:30:26.297Z,12.27
2019-02-19T15:35:34.421Z,7.10
2019-02-19T15:40:52.093Z,8.53
2019-02-19T15:46:24.153Z,8.67
2019-02-19T15:51:29.370Z,6.37
2019-02-19T15:56:33.292Z,6.37
2019-02-19T16:01:42.797Z,6.93
2019-02-19T16:07:00.221Z,6.90
2019-02-19T16:12:14.984Z,6.73
2019-02-19T16:17:25.299Z,6.50
2019-02-19T16:22:42.720Z,7.37
2019-02-19T16:27:57.967Z,8.00
2019-02-19T16:33:07.357Z,12.37
2019-02-19T16:38:16.176Z,12.63
2019-02-19T16:43:26.690Z,21.20
2019-02-19T16:48:41.454Z,18.77
2019-02-19T16:54:08.437Z,20.13
2019-02-19T16:59:19.708Z,27.23
2019-02-19T17:04:24.749Z,30.40
2019-02-19T17:09:31.455Z,18.90
2019-02-19T17:15:04.270Z,19.80
2019-02-19T17:20:28.802Z,14.40
2019-02-19T17:25:46.299Z,11.30
2019-02-19T17:31:10.822Z,24.47
2019-02-19T17:36:13.899Z,18.17
2019-02-19T17:41:36.319Z,12.93
2019-02-19T17:46:43.353Z,12.63
2019-02-19T17:51:57.065Z,16.17
2019-02-19T17:57:24.331Z,18.20
2019-02-19T18:02:44.390Z,32.10
2019-02-19T18:07:59.427Z,31.13
2019-02-19T18:13:32.971Z,60.47
2019-02-19T18:18:47.531Z,17.97
2019-02-19T18:23:44.965Z,24.63
2019-02-19T18:28:42.257Z,37.10
2019-02-19T18:33:39.246Z,21.13
2019-02-19T18:38:36.914Z,17.17
2019-02-19T18:43:36.547Z,17.57
2019-02-19T18:48:33.530Z,21.77
2019-02-19T18:53:30.990Z,25.40
2019-02-19T18:58:26.957Z,22.70
2019-02-19T19:03:22.962Z,15.70
2019-02-19T19:08:22.956Z,28.87
2019-02-19T19:13:18.821Z,19.80
2019-02-19T19:18:14.713Z,17.07
2019-02-19T19:23:10.588Z,19.97
2019-02-19T19:28:07.503Z,18.77
2019-02-19T19:33:03.336Z,23.60
2019-02-19T19:37:59.115Z,23.53
2019-02-19T19:42:54.904Z,27.93
2019-02-19T19:47:50.654Z,26.37
2019-02-19T19:52:47.188Z,29.10
2019-02-19T19:57:43.142Z,29.50
2019-02-19T20:02:41.922Z,37.87
2019-02-19T20:07:38.866Z,36.90
2019-02-19T20:12:36.030Z,37.13
2019-02-19T20:17:31.987Z,26.33
2019-02-19T20:22:27.917Z,38.13
2019-02-19T20:27:24.289Z,31.90
2019-02-19T20:32:20.260Z,32.50
2019-02-19T20:37:17.136Z,33.10
2019-02-19T20:42:15.201Z,31.20
2019-02-19T20:47:12.484Z,37.60
2019-02-19T20:52:08.530Z,26.90
2019-02-19T20:57:04.709Z,33.23
2019-02-19T21:02:01.579Z,34.07
2019-02-19T21:06:58.543Z,26.00
2019-02-19T21:12:01.060Z,22.40
2019-02-19T21:17:00.142Z,23.23
2019-02-19T21:21:56.348Z,36.60
2019-02-19T21:26:52.350Z,25.60
2019-02-19T21:31:48.735Z,23.67
2019-02-19T21:36:44.736Z,22.80
2019-02-19T21:41:42.794Z,21.47
2019-02-19T21:46:41.395Z,21.07
2019-02-19T21:51:37.849Z,21.40
2019-02-19T21:56:34.842Z,20.73
2019-02-19T22:01:30.686Z,20.60
2019-02-19T22:06:29.747Z,19.97
2019-02-19T22:11:25.461Z,19.27
2019-02-19T22:16:21.244Z,19.50
2019-02-19T22:21:38.924Z,19.47
2019-02-19T22:26:34.575Z,21.47
2019-02-19T22:31:31.412Z,21.17
2019-02-19T22:36:27.235Z,18.90
2019-02-19T22:41:25.416Z,20.53
2019-02-19T22:46:21.214Z,20.80
2019-02-19T22:51:17.080Z,20.20
2019-02-19T22:56:17.760Z,20.83
2019-02-19T23:01:23.332Z,17.07
2019-02-19T23:06:20.312Z,18.93
2019-02-19T23:11:16.271Z,17.47
2019-02-19T23:16:12.037Z,18.03
2019-02-19T23:21:07.785Z,17.90
2019-02-19T23:26:07.563Z,19.20
2019-02-19T23:31:03.487Z,18.33
2019-02-19T23:36:04.327Z,18.10
2019-02-19T23:41:00.561Z,17.10
2019-02-19T23:45:58.499Z,17.00
2019-02-19T23:50:54.319Z,16.73
2019-02-19T23:55:50.027Z,16.40
